NY/NJ Local METAR Reports

 

KNYC - NYC/Central Park, NY, USA
Distance from Hoboken: NE 4mi, 7km
Updated: 11/19/2018 12:51pm
Mostly cloudy
Mostly cloudy
 
Temperature: 50°F , 10°C
Dew Point: 39°F , 4°C
Humidity: 67%
Barometer: 30.08 inHg , 1018.6 hPa
Clouds: Mostly cloudy
Visibility: 7 miles , 11 km
Cloud details: Mostly cloudy 7500 ft
2018/11/19 17:51 KNYC 191751Z AUTO 7SM BKN075 10/04 A3008 RMK AO2 SLP178 T01000039 10100 20072 58014 $
KEWR - Newark, NJ, USA
Distance from Hoboken: WSW 8mi, 13km
Updated: 11/19/2018 12:51pm
Mostly cloudy
Mostly cloudy
 Wind from NNE
Wind: NNE 5 mph , 7 km/h
Temperature: 52°F , 11°C
Dew Point: 39°F , 4°C
Humidity: 62%
Barometer: 30.06 inHg , 1017.9 hPa
Clouds: Mostly cloudy
Visibility: 8 miles , 13 km
Cloud details: Few Clouds 2000 ft
Few Clouds 10000 ft
Mostly cloudy 22000 ft
Mostly cloudy 25000 ft
2018/11/19 17:51 KEWR 191751Z 03004KT 8SM FEW020 FEW100 BKN220 BKN250 11/04 A3006 RMK AO2 SLP177 T01060044 10106 20050 58026
 
KLGA - NYC/La Guardia, NY, USA
Distance from Hoboken: ENE 8mi, 13km
Updated: 11/19/2018 12:51pm
Mostly cloudy
Mostly cloudy
 Wind from NNE
Wind: NNE 3 mph , 6 km/h
Temperature: 52°F , 11°C
Dew Point: 39°F , 4°C
Humidity: 62%
Barometer: 30.05 inHg , 1017.6 hPa
Clouds: Mostly cloudy
Visibility: 10 miles , 16 km
Cloud details: Partly cloudy 11000 ft
Mostly cloudy 25000 ft
2018/11/19 17:51 KLGA 191751Z 03003KT 10SM SCT110 BKN250 11/04 A3005 RMK AO2 SLP176 T01060039 10106 20083 58023
KTEB - Teterboro, NJ, USA
Distance from Hoboken: N 9mi, 14km
Updated: 11/19/2018 12:51pm
Overcast
Overcast
 Wind from NE
Wind: NE 7 mph , 11 km/h
Temperature: 50°F , 10°C
Wind Chill: 47°F , 8°C
Dew Point: 39°F , 4°C
Humidity: 67%
Barometer: 30.05 inHg , 1017.6 hPa
Clouds: Overcast
Visibility: 10 miles , 16 km
Cloud details: Overcast 8000 ft
2018/11/19 17:51 KTEB 191751Z 04006KT 10SM OVC080 10/04 A3005 RMK AO2 SLP176 T01000044 10100 20050 58024
 
KJFK - NYC/Jfk Arpt, NY, USA
Distance from Hoboken: ESE 16mi, 25km
Updated: 11/19/2018 12:51pm
Haze, Mostly cloudy
Haze, Mostly cloudy
 Wind from WNW
Wind: WNW 5 mph , 7 km/h
Temperature: 52°F , 11°C
Dew Point: 43°F , 6°C
Humidity: 72%
Barometer: 30.06 inHg , 1017.9 hPa
Summary: Haze
Clouds: Mostly cloudy
Visibility: 6 miles , 10 km
Cloud details: Few Clouds 1500 ft
Few Clouds 11000 ft
Mostly cloudy 25000 ft
2018/11/19 17:51 KJFK 191751Z 30004KT 6SM HZ FEW015 FEW110 BKN250 11/06 A3006 RMK AO2 SLP180 T01060061 10106 20056 58025
KCDW - Caldwell, NJ, USA
Distance from Hoboken: NW 16mi, 26km
Updated: 11/19/2018 12:53pm
Mostly cloudy
Mostly cloudy
 Wind from NE
Wind: NE 3 mph , 6 km/h
Temperature: 46°F , 8°C
Dew Point: 39°F , 4°C
Humidity: 76%
Barometer: 30.06 inHg , 1017.9 hPa
Clouds: Mostly cloudy
Visibility: 7 miles , 11 km
Cloud details: Mostly cloudy 8000 ft
2018/11/19 17:53 KCDW 191753Z 04003KT 7SM BKN080 08/04 A3006 RMK AO2 SLP187 T00830039 10083 20033 58024
 
KMMU - Morristown Muni, NJ, USA
Distance from Hoboken: W 20mi, 33km
Updated: 11/19/2018 12:45pm
Mist, Mostly cloudy
Mist, Mostly cloudy
 Wind from E
Wind: E 5 mph , 7 km/h
Temperature: 48°F , 9°C
Wind Chill: 46°F , 8°C
Dew Point: 41°F , 5°C
Humidity: 76%
Barometer: 30.07 inHg , 1018.3 hPa
Summary: Mist
Clouds: Mostly cloudy
Visibility: 7 miles , 11 km
Cloud details: Partly cloudy 2500 ft
Mostly cloudy 7000 ft
2018/11/19 17:45 KMMU 191745Z 09004KT 7SM BR SCT025 BKN070 09/05 A3007
KHPN - White Plains, NY, USA
Distance from Hoboken: NE 28mi, 46km
Updated: 11/19/2018 12:56pm
Mostly cloudy
Mostly cloudy
 Wind from NW
Wind: NW 3 mph , 6 km/h
Temperature: 45°F , 7°C
Dew Point: 37°F , 3°C
Humidity: 76%
Barometer: 30.05 inHg , 1017.6 hPa
Clouds: Mostly cloudy
Visibility: 10 miles , 16 km
Cloud details: Few Clouds 1000 ft
Mostly cloudy 7500 ft
2018/11/19 17:56 KHPN 191756Z 31003KT 10SM FEW010 BKN075 07/03 A3005 RMK AO2 SLP180 T00720033 10078 20044 56021
 
KFRG - Farmingdale, NY, USA
Distance from Hoboken: E 32mi, 52km
Updated: 11/19/2018 12:53pm
Clear
Clear
 Wind from WSW
Wind: WSW 7 mph , 11 km/h
Temperature: 54°F , 12°C
Dew Point: 43°F , 6°C
Humidity: 67%
Barometer: 30.05 inHg , 1017.6 hPa
Clouds: Clear
Visibility: 10 miles , 16 km
2018/11/19 17:53 KFRG 191753Z 25006KT 10SM CLR 12/06 A3005 RMK AO2 SLP177 T01170056 10117 20033 58023
KSMQ - Somerville, NJ, USA
Distance from Hoboken: WSW 34mi, 55km
Updated: 11/19/2018 12:53pm
Few Clouds
Few Clouds
 Wind from N
Wind: N 3 mph , 6 km/h
Temperature: 48°F , 9°C
Dew Point: 39°F , 4°C
Humidity: 71%
Barometer: 30.05 inHg , 1017.6 hPa
Clouds: Few Clouds
Visibility: 7 miles , 11 km
Cloud details: Few Clouds 1700 ft
2018/11/19 17:53 KSMQ 191753Z AUTO 36003KT 7SM FEW017 09/04 A3005 RMK AO2 SLP176 T00890039 10089 20017 58023
 
KBLM - Belmar/Farmdale, NJ, USA
Distance from Hoboken: S 40mi, 64km
Updated: 11/19/2018 1:12pm
Partly cloudy
Partly cloudy
 Wind from varies
Wind: varies 6 mph , 9 km/h
Temperature: 52°F , 11°C
Dew Point: 43°F , 6°C
Humidity: 72%
Barometer: 30.06 inHg , 1017.9 hPa
Clouds: Partly cloudy
Visibility: 10 miles , 16 km
Cloud details: Partly cloudy 1500 ft
2018/11/19 18:12 KBLM 191812Z AUTO VRB05KT 10SM SCT015 11/06 A3006 RMK AO2
K12N - Andover, NJ, USA
Distance from Hoboken: WNW 41mi, 67km
Updated: 11/19/2018 12:54pm

 Wind from varies
Wind: varies 5 mph , 7 km/h
Temperature: 45°F , 7°C
Wind Chill: 42°F , 6°C
Dew Point: 36°F , 2°C
Humidity: 71%
Barometer: 30.05 inHg , 1017.6 hPa
2018/11/19 17:54 K12N 191754Z AUTO VRB04KT 07/02 A3005 RMK AO1 SLP182 T00720017 10072 20017 58021
 
KFWN - Sussex, NJ, USA
Distance from Hoboken: NW 45mi, 72km
Updated: 11/19/2018 12:53pm
Mostly cloudy
Mostly cloudy
 Wind from E
Wind: E 3 mph , 6 km/h
Temperature: 45°F , 7°C
Dew Point: 36°F , 2°C
Humidity: 71%
Barometer: 30.05 inHg , 1017.6 hPa
Clouds: Mostly cloudy
Visibility: 10 miles , 16 km
Cloud details: Few Clouds 3000 ft
Mostly cloudy 8000 ft
2018/11/19 17:53 KFWN 191753Z AUTO 08003KT 10SM FEW030 BKN080 07/02 A3005 RMK AO2 SLP178 T00670017 10072 20017 58021
KISP - Islip, NY, USA
Distance from Hoboken: E 49mi, 79km
Updated: 11/19/2018 12:56pm
Overcast
Overcast
 Wind from W
Wind: W 10 mph , 17 km/h
Temperature: 55°F , 13°C
Dew Point: 39°F , 4°C
Humidity: 55%
Barometer: 30.05 inHg , 1017.6 hPa
Clouds: Overcast
Visibility: 10 miles , 16 km
Cloud details: Partly cloudy 2500 ft
Overcast 25000 ft
2018/11/19 17:56 KISP 191756Z 26009KT 10SM SCT025 OVC250 13/04 A3005 RMK AO2 SLP176 T01330044 10133 20050 56022